Station: Portable Rfsnsw16  

  Atmospheric Gas Attenuation - ITU Rec 676-11   ----------------- dB/100km -----------------
Date Time Temp RH % AH g/m3 Dew Point Wind Direction Speed kph Gust kph Barometer mB Rainfall Since 9am 24GHz 47GHz 76GHz 122GHz 134GHz 241GHz
08/05 12:20 8.4 90 7.64 6.8 6 7 1013.1 0 17.8 25.9 38.5 101.0 92.1 315.8
08/05 12:10 8.2 91 7.62 6.8 6 7 1013.1 0 17.7 25.9 38.6 101.1 92.1 315.6
08/05 12:00 8.2 91 7.62 6.8 4 6 1013.1 0 17.7 25.9 38.6 101.1 92.1 315.6
08/05 11:50 8.1 91 7.58 6.7 4 7 1013.1 0 17.7 25.9 38.4 100.8 91.7 314.1
08/05 11:40 8 88 7.28 6.1 6 13 1013.1 0 17.0 25.4 37.2 97.6 87.7 300.1
08/05 11:30 7.7 90 7.3 6.1 4 6 1013.1 0 17.1 25.5 37.5 98.2 88.3 302.3
08/05 11:20 7.5 91 7.29 6.1 4 7 1013.1 0 17.1 25.6 37.5 98.3 88.4 302.6
08/05 11:10 7.3 90 7.11 5.8 4 6 1013.1 0 16.7 25.3 36.9 96.5 86.1 294.7
08/05 11:00 7.1 91 7.1 5.8 6 9 1013.1 0 16.7 25.4 36.9 96.7 86.2 295.0
08/05 10:50 6.9 92 7.09 5.7 4 9 1013.1 0 16.7 25.4 37.0 96.8 86.3 295.3
08/05 10:40 6.8 93 7.12 5.7 4 7 1013.1 0 16.7 25.5 37.1 97.3 86.8 297.1
08/05 10:10 6.3 93 6.89 5.3 4 7 1013.1 0 16.3 25.2 36.4 95.3 84.2 287.9
08/05 10:00 6 93 6.75 5 4 6 1013.1 0 16.0 25.1 36.0 94.1 82.6 282.3
08/05 09:50 5.9 94 6.78 5 4 6 1013.1 0 16.0 25.2 36.1 94.6 83.2 284.1
08/05 09:30 5.6 95 6.72 4.8 4 6 1013.1 0 15.9 25.1 36.0 94.3 82.7 282.3
08/05 09:20 5.4 95 6.63 4.6 6 13 1013.1 0 15.7 25.1 35.7 93.5 81.6 278.7
08/05 09:10 5.4 95 6.63 4.6 6 7 1013.1 0 15.7 25.1 35.7 93.5 81.6 278.7
08/05 08:50 5.2 96 6.61 4.6 6 7 1013.1 0 15.7 25.1 35.7 93.6 81.6 278.4
08/05 08:40 5.1 97 6.64 4.6 6 7 1013.1 0 15.8 25.2 35.9 94.0 82.1 280.2
08/05 08:30 5 97 6.6 4.6 4 6 1013.1 0 15.7 25.1 35.8 93.7 81.7 278.6
08/05 08:10 4.7 97 6.47 4.2 6 7 1013.1 0 15.4 25.0 35.4 92.6 80.2 273.4
08/05 08:00 4.6 97 6.42 4.1 4 6 1013.1 0 15.3 24.9 35.2 92.2 79.6 271.4
08/05 07:50 4.5 97 6.38 4 6 7 1013.1 0 15.2 24.9 35.1 91.8 79.1 269.8
08/05 07:40 4.4 97 6.34 3.9 4 7 1013.1 0 15.1 24.8 35.0 91.5 78.7 268.2
08/05 07:30 4.3 97 6.3 3.9 6 9 1013.1 0 15.1 24.8 34.9 91.2 78.2 266.6
08/05 07:20 4.3 97 6.3 3.8 4 7 1013.1 0 15.1 24.8 34.9 91.2 78.2 266.6
08/05 07:10 4.3 97 6.3 3.8 4 6 1013.1 0 15.1 24.8 34.9 91.2 78.2 266.6
08/05 07:00 4.2 97 6.26 3.7 4 6 1013.1 0 15.0 24.8 34.7 90.8 77.8 265.0
08/05 06:50 4.2 97 6.26 3.7 4 6 1013.1 0 15.0 24.8 34.7 90.8 77.8 265.0
08/05 06:40 4.2 96 6.19 3.6 6 7 1013.1 0 14.8 24.7 34.4 90.1 76.8 261.6
08/05 06:20 4.2 96 6.19 3.6 4 6 1013.1 0 14.8 24.7 34.4 90.1 76.8 261.6
08/05 06:10 4.1 97 6.21 3.6 4 7 1013.1 0 14.9 24.7 34.6 90.4 77.2 262.9
08/05 06:00 4.1 97 6.21 3.6 4 6 1013.1 0 14.9 24.7 34.6 90.4 77.2 262.9
08/05 05:50 4.1 96 6.15 3.5 6 9 1013.1 0 14.7 24.6 34.3 89.7 76.4 260.1
08/05 05:30 4 97 6.17 3.5 4 6 1013.1 0 14.8 24.7 34.4 90.1 76.8 261.4
08/05 05:20 3.9 97 6.13 3.5 4 6 1013.1 0 14.7 24.6 34.3 89.7 76.3 259.8
08/05 04:50 3.9 97 6.13 3.4 2 4 1013.1 0 14.7 24.6 34.3 89.7 76.3 259.8
08/05 04:30 3.9 96 6.07 3.3 4 6 1013.1 0 14.6 24.5 34.1 89.1 75.5 256.9
08/05 04:00 3.8 96 6.03 3.2 6 7 1013.1 0 14.5 24.5 33.9 88.7 75.0 255.3
08/05 03:50 3.8 95 5.96 3.1 6 6 1013.1 0 14.3 24.4 33.7 88.0 74.1 251.9
08/05 03:40 3.8 95 5.96 3.1 6 11 1013.1 0 14.3 24.4 33.7 88.0 74.1 251.9
08/05 03:20 3.8 94 5.9 3 4 6 1013.1 0 14.2 24.3 33.4 87.3 73.3 249.1
08/05 03:00 3.7 95 5.93 3 4 7 1013.1 0 14.3 24.4 33.6 87.8 73.8 250.8
08/05 02:50 3.7 95 5.93 3 7 11 1013.1 0 14.3 24.4 33.6 87.8 73.8 250.8
08/05 02:40 3.7 95 5.93 3 6 9 1013.1 0 14.3 24.4 33.6 87.8 73.8 250.8
08/05 02:30 3.7 94 5.86 2.9 6 11 1013.1 0 14.1 24.2 33.3 87.0 72.8 247.5
08/05 02:10 3.6 94 5.82 2.8 7 9 1013.1 0 14.0 24.2 33.2 86.6 72.4 245.9
08/05 02:00 3.7 92 5.74 2.6 7 11 1013.1 0 13.9 24.0 32.8 85.7 71.2 241.8
08/05 01:20 3.7 90 5.61 2.2 7 13 1013.1 0 13.6 23.8 32.3 84.2 69.4 235.6
08/05 01:10 3.8 88 5.53 2 6 9 1013.1 0 13.4 23.7 31.9 83.3 68.3 231.5
08/05 00:50 4.1 82 5.25 1.3 7 9 1013.1 0 12.8 23.1 30.7 79.9 64.3 217.6
08/05 00:30 4 83 5.28 1.4 6 9 1013.1 0 12.9 23.2 30.8 80.4 64.8 219.3
08/05 00:10 4.1 81 5.19 1.2 6 7 1013.1 0 12.7 23.0 30.4 79.3 63.5 214.8
08/05 00:00 4.1 81 5.19 1.1 6 7 1013.1 0 12.7 23.0 30.4 79.3 63.5 214.8
07/05 23:50 4.1 81 5.19 1.1 9 13 1013.1 0 12.7 23.0 30.4 79.3 63.5 214.8
07/05 23:40 4 81 5.15 1 9 11 1013.1 0 12.6 23.0 30.3 79.0 63.1 213.3
07/05 23:30 3.9 82 5.18 1.2 6 7 1013.1 0 12.7 23.1 30.5 79.4 63.5 214.9
07/05 23:20 3.9 82 5.18 1.2 7 11 1013.1 0 12.7 23.1 30.5 79.4 63.5 214.9
07/05 23:10 3.8 82 5.15 1.1 7 7 1013.1 0 12.6 23.1 30.4 79.2 63.2 213.8
07/05 23:00 3.8 83 5.21 1.2 7 11 1013.1 0 12.7 23.1 30.6 79.8 64.0 216.6
07/05 22:50 3.8 84 5.27 1.3 7 11 1013.1 0 12.9 23.2 30.8 80.5 64.8 219.4
07/05 22:40 3.7 83 5.18 1.1 6 11 1013.1 0 12.7 23.1 30.5 79.6 63.7 215.5
07/05 22:30 3.6 85 5.27 1.3 6 7 1013.1 0 12.9 23.3 30.9 80.7 65.0 219.9
07/05 22:20 3.7 84 5.24 1.2 7 13 1013.1 0 12.8 23.2 30.8 80.2 64.5 218.3
07/05 22:10 3.7 82 5.11 0.9 7 11 1013.1 0 12.5 23.0 30.2 78.8 62.8 212.2
07/05 22:00 3.7 81 5.05 0.7 7 11 1013.1 0 12.4 22.9 30.0 78.2 62.0 209.5
07/05 21:50 3.7 79 4.93 0.5 7 11 1013.1 0 12.1 22.7 29.5 76.9 60.4 203.9
07/05 21:40 3.7 79 4.93 0.5 7 13 1013.1 0 12.1 22.7 29.5 76.9 60.4 203.9
07/05 21:30 3.6 79 4.89 0.3 9 15 1013.1 0 12.0 22.7 29.4 76.6 60.0 202.4
07/05 21:20 3.6 79 4.89 0.3 7 9 1013.1 0 12.0 22.7 29.4 76.6 60.0 202.4
07/05 21:10 3.5 79 4.86 0.2 7 15 1013.1 0 12.0 22.7 29.3 76.4 59.7 201.2
07/05 20:50 3.2 79 4.77 -0.1 7 9 1013.1 0 11.8 22.6 29.1 75.7 58.7 197.9
07/05 20:40 3.1 79 4.73 -0.2 9 13 1013.1 0 11.7 22.6 29.0 75.4 58.3 196.3
07/05 20:30 3 79 4.7 -0.3 7 9 1013.1 0 11.6 22.5 28.9 75.2 57.9 195.2
07/05 20:20 3.1 78 4.67 -0.4 6 9 1013.1 0 11.6 22.5 28.7 74.8 57.5 193.5
07/05 20:10 3.2 77 4.64 -0.5 7 9 1013.1 0 11.5 22.4 28.6 74.4 57.0 191.9
07/05 20:00 3.1 77 4.61 -0.6 7 11 1013.1 0 11.5 22.4 28.5 74.1 56.7 190.8
07/05 19:50 3.2 77 4.64 -0.5 6 9 1013.1 0 11.5 22.4 28.6 74.4 57.0 191.9
07/05 19:40 3.2 75 4.52 -0.8 7 9 1013.1 0 11.3 22.2 28.1 73.1 55.5 186.5
07/05 19:30 3.2 75 4.52 -0.8 6 9 1013.1 0 11.3 22.2 28.1 73.1 55.5 186.5
07/05 19:20 3.4 74 4.52 -0.8 7 15 1013.1 0 11.2 22.2 28.0 72.9 55.3 186.0
07/05 19:10 3.3 74 4.49 -0.9 6 9 1013.1 0 11.2 22.1 28.0 72.7 55.0 184.9
07/05 19:00 3.5 73 4.49 -0.8 6 9 1013.1 0 11.2 22.1 27.9 72.5 54.9 184.4
07/05 18:50 3.7 73 4.55 -0.6 6 9 1013.1 0 11.3 22.1 28.0 73.0 55.5 186.7
07/05 18:40 3.9 72 4.55 -0.6 7 11 1013.1 0 11.3 22.1 28.0 72.8 55.3 186.2
07/05 18:30 3.9 73 4.61 -0.4 7 11 1013.1 0 11.4 22.2 28.2 73.4 56.1 188.9
07/05 18:20 3.9 73 4.61 -0.4 6 9 1013.1 0 11.4 22.2 28.2 73.4 56.1 188.9
07/05 18:10 3.8 74 4.65 -0.3 6 7 1013.1 0 11.5 22.3 28.4 73.9 56.7 190.9
07/05 18:00 3.9 73 4.61 -0.4 6 11 1013.1 0 11.4 22.2 28.2 73.4 56.1 188.9
07/05 17:50 4 73 4.65 -0.4 6 9 1013.1 0 11.5 22.2 28.3 73.7 56.6 190.5
07/05 17:40 4.2 72 4.64 -0.4 6 7 1013.1 0 11.5 22.1 28.2 73.4 56.3 189.5
07/05 17:30 4.3 70 4.54 -0.6 7 11 1013.1 0 11.3 22.0 27.8 72.3 54.9 184.8
07/05 17:20 4.5 72 4.74 -0.1 6 9 1013.1 0 11.7 22.2 28.5 74.2 57.4 193.3
07/05 17:10 4.7 69 4.6 -0.5 6 7 1013.1 0 11.4 22.0 27.9 72.5 55.4 186.6
07/05 17:00 4.8 68 4.56 -0.5 6 7 1013.1 0 11.3 21.9 27.7 72.0 54.8 184.5
07/05 16:50 4.9 70 4.73 -0.1 4 9 1013.1 0 11.7 22.1 28.3 73.7 56.9 191.9
07/05 16:40 5 67 4.56 -0.5 6 9 1013.1 0 11.3 21.8 27.6 71.9 54.7 184.1
07/05 16:20 5.3 67 4.65 -0.2 6 11 1013.1 0 11.5 21.9 27.9 72.5 55.6 187.4
07/05 16:10 5.4 67 4.68 -0.3 7 9 1013.1 0 11.5 21.9 28.0 72.7 55.9 188.5
07/05 16:00 5.5 69 4.85 0.3 6 9 1013.1 0 11.9 22.2 28.6 74.4 58.0 195.8

Last Refresh: 08-May-2026 12:10:19

Bureau of Meteorology